General Aviation Weather

Text Reports

Enter one or more of the following location identifiers separated by a space:

Zip Code, Four-Character ICAO or Three-Character IATA airport codes.

METAR - Aviation Routine Weather Report
KHEZ - Natchez, Mississippi
Updated at 6:35 AM GMT on August 22, 2014 (1:35 AM CDT):
METAR KHEZ 220635Z AUTO 00000KT 10SM CLR 23/22 A3008 RMK AO1
TAF - Terminal Area Forecast
KHEZ - Natchez, Mississippi
Updated at 6:35 AM GMT on August 22, 2014 (1:35 AM CDT):
No TAF is currently available for this location.
Decoded:
No decoded TAF is available.
PIREP - Pilot Weather Report
KHEZ - Natchez, Mississippi
Updated at 6:35 AM GMT on August 22, 2014 (1:35 AM CDT):
No PIREP is currently available for this location.
AIRMET - Airmens Meteorological Information
KHEZ - Natchez, Mississippi
Updated at 6:35 AM GMT on August 22, 2014 (1:35 AM CDT):
No AIRMET is currently available for this location.
SIGMET - Significant Meteorological Information
KHEZ - Natchez, Mississippi
Updated at 6:35 AM GMT on August 22, 2014 (1:35 AM CDT):
No SIGMET is currently available for this location.
NOTAM - Notice to Airmen
KHEZ - Natchez, Mississippi
Updated at 6:35 AM GMT on August 22, 2014 (1:35 AM CDT):
No NOTAM is currently available for this location.
Forecast Area
KHEZ - Natchez, Mississippi
Updated at 6:35 AM GMT on August 22, 2014 (1:35 AM CDT):
No NOTAM is currently available for this location.
Aviation Weather Maps